Time;durP1;ratioP1;P1;durP2;ratioP2;P2;SDS_P1;SDS_P2;PMS_P1;PMS_P2;Temp;Humidity;BMP_temperature;BMP_pressure;BME280_temperature;BME280_humidity;BME280_pressure;Samples;Min_cycle;Max_cycle;Signal;HPM_P1;HPM_P2
2022/01/14 00:00:58;;;;;;;163.32;38.38;;;;;;;1.57;100.00;103152.59;6235395;23;20093;-86
2022/01/14 00:03:24;;;;;;;158.13;36.35;;;;;;;1.60;100.00;103158.72;6208386;23;20099;-86
2022/01/14 00:05:50;;;;;;;175.20;46.03;;;;;;;1.62;100.00;103157.78;6260940;22;20019;-86
2022/01/14 00:08:15;;;;;;;181.25;41.72;;;;;;;1.64;100.00;103147.13;6261556;22;20468;-86
2022/01/14 00:10:47;;;;;;;202.90;47.70;;;;;;;1.68;100.00;103146.13;6234933;22;20043;-87
2022/01/14 00:13:37;;;;;;;188.98;44.92;;;;;;;1.65;100.00;103149.72;6238427;22;20095;-86
2022/01/14 00:15:58;;;;;;;156.27;35.53;;;;;;;1.64;100.00;103144.47;6233414;22;20024;-86
2022/01/14 00:18:24;;;;;;;157.63;36.10;;;;;;;1.67;100.00;103149.66;6233398;23;20058;-87
2022/01/14 00:33:06;;;;;;;191.43;43.65;;;;;;;1.69;100.00;103148.69;6234669;22;20027;-87
2022/01/14 00:35:44;;;;;;;229.27;49.28;;;;;;;1.71;100.00;103136.28;6260074;22;20097;-86
2022/01/14 00:38:15;;;;;;;212.27;45.65;;;;;;;1.73;100.00;103136.25;6226217;22;20027;-86
2022/01/14 00:40:41;;;;;;;190.82;41.33;;;;;;;1.71;100.00;103140.72;6234578;22;20091;-86
2022/01/14 00:43:06;;;;;;;190.38;45.63;;;;;;;1.72;100.00;103137.16;6214299;23;20440;-86
2022/01/14 00:45:32;;;;;;;193.25;46.90;;;;;;;1.75;100.00;103127.31;6238090;23;20020;-86
2022/01/14 00:51:19;;;;;;;190.70;45.85;;;;;;;1.77;100.00;103138.75;6240160;23;20066;-86
2022/01/14 00:53:45;;;;;;;179.38;43.50;;;;;;;1.79;100.00;103144.00;6235155;22;20356;-87
2022/01/14 01:01:38;;;;;;;245.30;53.38;;;;;;;1.82;100.00;103138.59;6237184;22;20138;-86
2022/01/14 01:04:05;;;;;;;223.77;50.05;;;;;;;1.84;100.00;103135.88;6238110;23;20031;-86
2022/01/14 01:06:30;;;;;;;182.38;42.90;;;;;;;1.84;100.00;103136.75;6264822;22;20022;-86
2022/01/14 01:08:57;;;;;;;262.20;60.58;;;;;;;1.88;100.00;103138.41;6237870;22;20379;-86
2022/01/14 01:11:33;;;;;;;224.23;50.92;;;;;;;1.87;100.00;103135.78;6263187;22;20416;-85
2022/01/14 01:14:09;;;;;;;170.88;37.95;;;;;;;1.88;100.00;103126.94;6238089;22;20040;-86
2022/01/14 01:16:34;;;;;;;242.02;60.95;;;;;;;1.89;100.00;103139.25;6236037;23;20098;-86
2022/01/14 01:19:00;;;;;;;223.18;48.65;;;;;;;1.92;100.00;103137.38;6238254;23;20028;-86
2022/01/14 01:21:25;;;;;;;251.88;52.50;;;;;;;1.92;100.00;103116.19;6262706;22;20391;-86
2022/01/14 01:23:50;;;;;;;253.48;55.20;;;;;;;1.92;100.00;103129.41;6237409;22;20008;-86
2022/01/14 01:26:25;;;;;;;264.92;54.33;;;;;;;1.97;100.00;103123.97;6238791;23;20020;-86
2022/01/14 01:29:18;;;;;;;247.73;52.75;;;;;;;1.94;100.00;103121.44;6237699;22;20135;-86
2022/01/14 01:31:45;;;;;;;239.23;51.08;;;;;;;1.93;100.00;103119.72;6262292;22;20023;-86
2022/01/14 01:34:17;;;;;;;239.20;50.78;;;;;;;1.95;100.00;103110.78;6263527;22;20365;-86
2022/01/14 01:36:45;;;;;;;309.60;69.60;;;;;;;1.99;100.00;103109.78;6261965;22;20027;-86
2022/01/14 01:39:14;;;;;;;262.63;58.55;;;;;;;2.00;100.00;103100.91;6236387;23;20040;-86
2022/01/14 01:41:46;;;;;;;283.63;54.55;;;;;;;2.00;100.00;103102.69;6234078;22;20016;-86
2022/01/14 01:44:13;;;;;;;250.02;55.47;;;;;;;2.01;100.00;103102.66;6236725;23;20070;-86
2022/01/14 01:46:41;;;;;;;243.05;50.95;;;;;;;2.02;100.00;103103.50;6237656;22;20018;-86
2022/01/14 01:49:08;;;;;;;296.80;68.70;;;;;;;2.05;100.00;103110.50;6239247;23;20448;-87
2022/01/14 01:51:34;;;;;;;267.02;59.53;;;;;;;2.03;100.00;103116.69;6238975;22;20392;-86
2022/01/14 01:53:59;;;;;;;292.90;59.30;;;;;;;2.03;100.00;103108.75;6237388;22;20078;-86
2022/01/14 01:56:25;;;;;;;233.50;50.72;;;;;;;2.05;100.00;103106.06;6213172;23;20019;-86
2022/01/14 01:58:50;;;;;;;223.88;46.03;;;;;;;2.05;100.00;103113.13;6238019;22;20069;-86
2022/01/14 02:01:17;;;;;;;264.13;56.40;;;;;;;2.05;100.00;103103.41;6235041;23;20023;-86
2022/01/14 02:03:42;;;;;;;307.88;62.92;;;;;;;2.08;100.00;103113.03;6261807;22;20019;-86
2022/01/14 02:06:07;;;;;;;205.98;40.70;;;;;;;2.08;100.00;103105.94;6238890;22;20016;-86
2022/01/14 02:08:33;;;;;;;243.85;50.60;;;;;;;2.10;100.00;103100.56;6236118;23;20055;-86
2022/01/14 02:10:59;;;;;;;271.45;56.67;;;;;;;2.12;100.00;103098.75;6262572;22;20149;-87
2022/01/14 02:13:26;;;;;;;261.40;60.85;;;;;;;2.12;100.00;103098.75;6239110;23;20020;-86
2022/01/14 02:18:39;;;;;;;243.70;50.70;;;;;;;2.11;100.00;103099.69;6240753;22;20083;-86
2022/01/14 02:24:20;;;;;;;278.52;57.08;;;;;;;2.11;100.00;103087.28;6238292;22;20063;-86
2022/01/14 02:26:54;;;;;;;323.30;67.00;;;;;;;2.10;100.00;103074.97;6234070;22;20016;-86
2022/01/14 02:29:21;;;;;;;285.60;58.75;;;;;;;2.11;100.00;103073.19;6213330;23;20039;-87
2022/01/14 02:31:47;;;;;;;326.58;72.13;;;;;;;2.14;100.00;103070.44;6211399;22;20016;-86
2022/01/14 02:34:14;;;;;;;305.10;70.32;;;;;;;2.12;100.00;103075.78;6238885;23;20027;-86
2022/01/14 02:36:42;;;;;;;331.83;68.95;;;;;;;2.11;100.00;103073.19;6236104;22;20032;-86
2022/01/14 02:39:13;;;;;;;351.63;78.13;;;;;;;2.15;100.00;103073.00;6235675;23;20022;-86
2022/01/14 02:41:41;;;;;;;289.63;66.20;;;;;;;2.12;100.00;103072.25;6234762;22;20067;-86
2022/01/14 02:44:09;;;;;;;327.77;64.53;;;;;;;2.12;100.00;103081.06;6238982;22;20035;-86
2022/01/14 02:46:48;;;;;;;328.40;75.75;;;;;;;2.15;100.00;103080.09;6213071;23;20484;-86
2022/01/14 02:49:13;;;;;;;;;;;;;;;2.13;100.00;103076.63;6239927;22;20070;-87
2022/01/14 02:51:39;;;;;;;280.85;63.85;;;;;;;2.05;100.00;103076.91;6263548;22;19907;-86
2022/01/14 02:54:16;;;;;;;309.75;66.50;;;;;;;2.05;100.00;103076.91;6261875;22;20495;-86
2022/01/14 02:56:44;;;;;;;204.60;41.72;;;;;;;2.05;100.00;103070.75;6233477;22;20091;-86
2022/01/14 02:59:10;;;;;;;313.75;63.40;;;;;;;2.07;100.00;103069.75;6211912;23;20012;-86
2022/01/14 03:01:37;;;;;;;222.13;50.17;;;;;;;2.06;100.00;103068.03;6237623;23;20024;-86
2022/01/14 03:04:05;;;;;;;304.88;64.97;;;;;;;2.09;100.00;103067.06;6259796;22;20020;-86
2022/01/14 03:06:31;;;;;;;312.40;68.60;;;;;;;2.10;100.00;103064.38;6260561;22;20016;-86
2022/01/14 03:08:57;;;;;;;306.17;65.45;;;;;;;2.12;100.00;103061.66;6236172;22;20016;-86
2022/01/14 03:11:34;;;;;;;291.08;58.20;;;;;;;2.11;100.00;103055.50;6261710;22;20016;-86
2022/01/14 03:14:01;;;;;;;256.70;51.13;;;;;;;2.09;100.00;103056.47;6235863;22;20024;-86
2022/01/14 03:16:28;;;;;;;302.17;63.42;;;;;;;2.08;100.00;103055.63;6260189;22;20032;-87
2022/01/14 03:19:05;;;;;;;315.60;70.20;;;;;;;2.12;100.00;103057.22;6234164;22;20028;-86
2022/01/14 03:21:37;;;;;;;333.67;71.60;;;;;;;2.10;100.00;103052.91;6214834;23;20095;-86
2022/01/14 03:24:15;;;;;;;372.60;80.47;;;;;;;2.12;100.00;103040.47;6210688;22;20028;-86
2022/01/14 03:26:42;;;;;;;325.13;67.82;;;;;;;2.07;100.00;103032.69;6258649;22;20028;-87
2022/01/14 03:29:10;;;;;;;361.60;82.05;;;;;;;2.10;100.00;103031.72;6259935;22;20042;-86
2022/01/14 03:31:36;;;;;;;317.45;71.72;;;;;;;2.08;100.00;103033.56;6237055;23;20012;-86
2022/01/14 03:34:02;;;;;;;289.55;61.95;;;;;;;2.08;100.00;103044.16;6232315;22;20027;-86
2022/01/14 03:36:30;;;;;;;373.52;80.55;;;;;;;2.08;100.00;103033.56;6262017;22;20012;-86
2022/01/14 03:38:56;;;;;;;426.65;88.38;;;;;;;2.07;100.00;103042.41;6235487;22;20066;-86
2022/01/14 03:41:22;;;;;;;299.30;62.72;;;;;;;2.04;100.00;103038.09;6235765;23;20329;-86
2022/01/14 03:43:47;;;;;;;379.75;82.50;;;;;;;2.08;100.00;103044.16;6233165;22;20023;-86
2022/01/14 03:46:13;;;;;;;400.45;86.45;;;;;;;2.09;100.00;103040.59;6210618;23;20016;-86
2022/01/14 03:48:38;;;;;;;265.35;51.38;;;;;;;2.04;100.00;103032.78;6256220;22;20390;-86
2022/01/14 03:51:04;;;;;;;326.40;64.93;;;;;;;2.03;100.00;103031.06;6231888;23;20059;-88
2022/01/14 03:53:30;;;;;;;315.13;71.40;;;;;;;2.03;100.00;103039.88;6236004;23;20566;-86
2022/01/14 03:55:56;;;;;;;305.95;62.92;;;;;;;2.03;100.00;103031.94;6235174;22;20092;-86
2022/01/14 03:58:22;;;;;;;295.25;67.80;;;;;;;2.03;100.00;103029.28;6262235;22;20020;-86
2022/01/14 04:00:48;;;;;;;435.27;80.80;;;;;;;2.02;100.00;103030.22;6256761;22;20016;-86
2022/01/14 04:03:16;;;;;;;300.42;59.33;;;;;;;2.04;100.00;103038.09;6235832;23;20060;-86
2022/01/14 04:05:42;;;;;;;407.80;84.30;;;;;;;2.08;100.00;103033.56;6232814;22;20488;-86
2022/01/14 04:08:08;;;;;;;458.67;86.13;;;;;;;2.07;100.00;103021.22;6236601;23;20095;-86
2022/01/14 04:10:33;;;;;;;406.05;80.18;;;;;;;2.07;100.00;103021.22;6261254;22;20386;-86
2022/01/14 04:13:11;;;;;;;339.33;69.55;;;;;;;2.07;100.00;103027.38;6209427;22;20023;-86
2022/01/14 04:15:37;;;;;;;368.47;76.33;;;;;;;2.05;100.00;103036.34;6233383;22;20020;-87
2022/01/14 04:18:08;;;;;;;323.63;65.13;;;;;;;2.03;100.00;103031.94;6235328;23;20459;-87
2022/01/14 04:20:35;;;;;;;418.17;89.43;;;;;;;2.06;100.00;103017.72;6234567;23;20091;-86
2022/01/14 04:23:02;;;;;;;312.42;61.38;;;;;;;2.00;100.00;103024.09;6258036;22;20022;-86
2022/01/14 04:25:28;;;;;;;354.13;79.68;;;;;;;2.02;100.00;103030.22;6262027;22;20444;-86
2022/01/14 04:27:53;;;;;;;402.63;85.93;;;;;;;2.03;100.00;103031.94;6235781;22;20046;-86
2022/01/14 04:30:20;;;;;;;296.17;58.88;;;;;;;1.98;100.00;103025.06;6236666;22;20050;-87
2022/01/14 04:32:46;;;;;;;313.80;64.70;;;;;;;1.97;100.00;103026.84;6260179;22;20023;-87
2022/01/14 04:35:11;;;;;;;370.10;67.10;;;;;;;1.97;100.00;103018.91;6234805;23;20028;-86
2022/01/14 04:37:37;;;;;;;426.30;85.75;;;;;;;1.99;100.00;103013.56;6259613;22;20016;-87
2022/01/14 04:40:05;;;;;;;402.00;88.55;;;;;;;2.02;100.00;103016.13;6259540;22;20040;-87
2022/01/14 04:42:31;;;;;;;459.75;89.03;;;;;;;2.01;100.00;103012.59;6260708;22;20077;-86
2022/01/14 04:44:56;;;;;;;379.58;69.40;;;;;;;2.00;100.00;103020.59;6234680;22;20023;-86
2022/01/14 04:50:07;;;;;;;469.58;82.55;;;;;;;2.01;100.00;103019.66;6223431;22;20095;-87
2022/01/14 04:52:32;;;;;;;367.10;77.00;;;;;;;2.02;100.00;103021.41;6236103;23;20094;-86
2022/01/14 04:54:58;;;;;;;465.27;88.43;;;;;;;2.02;100.00;103019.63;6233854;22;20023;-86
2022/01/14 04:57:24;;;;;;;433.65;88.10;;;;;;;1.99;100.00;103011.78;6235939;23;20043;-86
2022/01/14 04:59:51;;;;;;;425.23;81.32;;;;;;;1.98;100.00;103023.28;6258170;22;20012;-86
2022/01/14 05:02:16;;;;;;;368.20;63.30;;;;;;;1.94;100.00;103016.38;6224221;23;20018;-86
2022/01/14 05:04:44;;;;;;;301.83;57.53;;;;;;;1.96;100.00;103011.91;6249958;22;20352;-86
2022/01/14 05:07:22;;;;;;;422.50;83.70;;;;;;;1.97;100.00;103010.97;6235467;22;20110;-87
2022/01/14 05:09:57;;;;;;;381.30;80.25;;;;;;;1.96;100.00;103001.31;6232060;22;20016;-86
2022/01/14 05:12:23;;;;;;;375.63;77.60;;;;;;;1.98;100.00;103002.09;6236263;22;20043;-86
2022/01/14 05:14:48;;;;;;;424.88;81.70;;;;;;;1.96;100.00;102992.50;6258417;22;20491;-86
2022/01/14 05:17:14;;;;;;;489.35;102.22;;;;;;;1.98;100.00;103001.22;6236053;23;20074;-85
2022/01/14 05:19:39;;;;;;;486.77;104.07;;;;;;;1.98;100.00;102996.78;6233111;23;20460;-86
2022/01/14 05:22:06;;;;;;;487.63;89.88;;;;;;;1.97;100.00;102992.44;6205095;22;20027;-86
2022/01/14 05:24:31;;;;;;;468.63;94.43;;;;;;;1.96;100.00;102981.91;6235478;22;20360;-86
2022/01/14 05:26:59;;;;;;;407.58;76.22;;;;;;;1.93;100.00;102977.59;6232767;22;22802;-86
2022/01/14 05:29:25;;;;;;;378.45;76.78;;;;;;;1.92;100.00;102982.91;6234757;23;20559;-86
2022/01/14 05:32:01;;;;;;;368.05;76.68;;;;;;;1.91;100.00;102984.72;6232801;22;20042;-87
2022/01/14 05:34:26;;;;;;;329.38;60.83;;;;;;;1.87;100.00;102974.25;6262379;22;20020;-87
2022/01/14 05:36:52;;;;;;;356.90;65.32;;;;;;;1.88;100.00;102974.22;6234842;22;20099;-86
2022/01/14 05:39:20;;;;;;;596.58;114.95;;;;;;;1.89;100.00;102975.09;6262475;22;20020;-86
2022/01/14 05:41:48;;;;;;;428.67;94.47;;;;;;;1.87;100.00;102972.50;6235898;22;20019;-86
2022/01/14 05:44:15;;;;;;;603.60;112.50;;;;;;;1.88;100.00;102966.28;6235737;23;20012;-86
2022/01/14 05:46:40;;;;;;;457.80;84.90;;;;;;;1.87;100.00;102964.56;6261329;22;20012;-86
2022/01/14 05:49:05;;;;;;;444.63;84.47;;;;;;;1.86;100.00;102965.47;6237907;23;20023;-86
2022/01/14 05:51:31;;;;;;;365.05;71.78;;;;;;;1.86;100.00;102965.47;6237152;22;20016;-86
2022/01/14 05:53:56;;;;;;;382.63;82.75;;;;;;;1.86;100.00;102960.16;6262135;22;20039;-86
2022/01/14 05:56:24;;;;;;;334.55;67.07;;;;;;;1.83;100.00;102955.00;6263534;22;20467;-86
2022/01/14 05:58:49;;;;;;;459.92;94.32;;;;;;;1.85;100.00;102962.88;6231516;22;20044;-86
2022/01/14 06:01:15;;;;;;;493.45;100.72;;;;;;;1.86;100.00;102965.47;6231799;23;20020;-85
2022/01/14 06:03:41;;;;;;;444.95;92.88;;;;;;;1.86;100.00;102944.28;6233592;22;20016;-86
2022/01/14 06:06:07;;;;;;;516.38;102.57;;;;;;;1.85;100.00;102953.16;6234733;23;20086;-86
2022/01/14 06:08:33;;;;;;;468.23;84.78;;;;;;;1.86;100.00;102960.16;6238206;22;20016;-85
2022/01/14 06:10:58;;;;;;;377.35;72.45;;;;;;;1.85;100.00;102942.56;6252657;22;20793;-86
2022/01/14 06:13:24;;;;;;;460.55;91.80;;;;;;;1.86;100.00;102946.06;6234344;23;20020;-85
2022/01/14 06:15:49;;;;;;;419.30;94.57;;;;;;;1.86;100.00;102954.88;6233392;22;20027;-86
2022/01/14 06:18:15;;;;;;;319.77;67.22;;;;;;;1.84;100.00;102950.56;6232202;23;20018;-86
2022/01/14 06:20:40;;;;;;;354.02;68.15;;;;;;;1.82;100.00;102937.38;6234920;22;20042;-86
2022/01/14 06:23:06;;;;;;;471.15;101.07;;;;;;;1.86;100.00;102931.03;6232696;22;20020;-86
2022/01/14 06:25:31;;;;;;;485.50;87.70;;;;;;;1.84;100.00;102935.53;6209462;23;20349;-85
2022/01/14 06:27:57;;;;;;;470.63;91.20;;;;;;;1.86;100.00;102939.00;6235741;22;20097;-85
2022/01/14 06:30:22;;;;;;;398.48;87.53;;;;;;;1.87;100.00;102931.91;6262494;22;20023;-85
2022/01/14 06:32:54;;;;;;;499.45;100.55;;;;;;;1.90;100.00;102940.63;6233511;22;20022;-86
2022/01/14 06:35:20;;;;;;;404.17;79.28;;;;;;;1.89;100.00;102954.75;6237933;22;20017;-85
2022/01/14 06:37:46;;;;;;;338.25;69.10;;;;;;;1.85;100.00;102952.31;6236236;22;20024;-87
2022/01/14 06:40:12;;;;;;;435.15;81.25;;;;;;;1.87;100.00;102948.69;6238939;23;20012;-86
2022/01/14 06:42:38;;;;;;;412.00;87.60;;;;;;;1.90;100.00;102961.81;6235988;23;20336;-84
2022/01/14 06:45:05;;;;;;;414.48;94.68;;;;;;;1.89;100.00;102943.31;6235996;22;20020;-83
2022/01/14 06:47:31;;;;;;;515.60;98.03;;;;;;;1.89;100.00;102948.59;6237424;23;20016;-84
2022/01/14 06:49:56;;;;;;;480.38;98.40;;;;;;;1.91;100.00;102950.28;6233092;22;20031;-84
2022/01/14 06:52:22;;;;;;;496.92;99.65;;;;;;;1.91;100.00;102947.63;6234794;23;20330;-84
2022/01/14 06:54:48;;;;;;;331.38;73.55;;;;;;;1.91;100.00;102952.94;6215844;22;20020;-84
2022/01/14 06:57:15;;;;;;;448.00;88.00;;;;;;;1.92;100.00;102954.66;6235321;23;20023;-85
2022/01/14 06:59:41;;;;;;;502.27;101.20;;;;;;;1.92;100.00;102954.66;6234773;23;20012;-84
2022/01/14 07:02:06;;;;;;;425.25;94.10;;;;;;;1.91;100.00;102958.22;6233245;23;20022;-83
2022/01/14 07:04:33;;;;;;;380.48;80.90;;;;;;;1.93;100.00;102951.09;6236764;23;20019;-85
2022/01/14 07:06:59;;;;;;;482.92;99.13;;;;;;;1.93;100.00;102934.34;6235077;22;20099;-84
2022/01/14 07:09:25;;;;;;;519.60;104.20;;;;;;;1.95;100.00;102943.09;6185634;23;20103;-85
2022/01/14 07:11:57;;;;;;;486.60;103.68;;;;;;;1.95;100.00;102945.72;6210319;22;20020;-85
2022/01/14 07:14:22;;;;;;;458.65;96.85;;;;;;;1.94;100.00;102936.06;6236963;23;20051;-84
2022/01/14 07:16:48;;;;;;;329.55;74.18;;;;;;;1.91;100.00;102947.63;6239102;22;20065;-84
2022/01/14 07:19:15;;;;;;;296.15;62.92;;;;;;;1.91;100.00;102952.94;6210892;23;20138;-83
2022/01/14 07:21:41;;;;;;;420.05;87.82;;;;;;;1.93;100.00;102955.53;6236180;22;20019;-84
2022/01/14 07:24:06;;;;;;;423.75;88.38;;;;;;;1.93;100.00;102959.03;6212160;23;20475;-83
2022/01/14 07:26:32;;;;;;;360.33;78.95;;;;;;;1.91;100.00;102957.38;6236662;23;20016;-84
2022/01/14 07:28:58;;;;;;;376.98;78.50;;;;;;;1.92;100.00;102959.09;6206747;22;20020;-84
2022/01/14 07:31:24;;;;;;;353.58;77.20;;;;;;;1.89;100.00;102954.75;6209178;23;20388;-85
2022/01/14 07:33:49;;;;;;;386.10;83.93;;;;;;;1.91;100.00;102966.16;6236237;22;20031;-85
2022/01/14 07:36:15;;;;;;;530.55;106.65;;;;;;;1.91;100.00;102957.38;6234144;23;20020;-85
2022/01/14 07:38:40;;;;;;;446.77;94.03;;;;;;;1.93;100.00;102966.13;6236341;23;20020;-83
2022/01/14 07:41:06;;;;;;;330.48;68.20;;;;;;;1.87;100.00;102966.31;6210005;22;20020;-83
2022/01/14 07:43:32;;;;;;;325.58;69.32;;;;;;;1.89;100.00;102965.34;6235649;23;20009;-84
2022/01/14 07:45:57;;;;;;;386.17;88.30;;;;;;;1.91;100.00;102968.81;6230936;22;20396;-84
2022/01/14 07:48:23;;;;;;;420.42;89.25;;;;;;;1.91;100.00;102968.81;6236377;22;20448;-84
2022/01/14 07:50:49;;;;;;;380.90;86.25;;;;;;;1.91;100.00;102963.53;6205225;22;20012;-84
2022/01/14 07:53:14;;;;;;;326.13;71.25;;;;;;;1.93;100.00;102960.84;6233504;23;20012;-84
2022/01/14 07:55:40;;;;;;;277.75;58.92;;;;;;;1.93;100.00;102966.13;6234490;23;20020;-84
2022/01/14 07:58:06;;;;;;;499.50;110.38;;;;;;;1.95;100.00;102969.56;6256299;22;20035;-84
2022/01/14 08:00:32;;;;;;;411.70;88.82;;;;;;;1.94;100.00;102976.66;6236364;22;20019;-85
2022/01/14 08:02:59;;;;;;;301.80;63.33;;;;;;;1.92;100.00;102975.84;6206202;22;20020;-84
2022/01/14 08:05:24;;;;;;;394.38;89.13;;;;;;;1.95;100.00;102973.06;6235496;22;20483;-84
2022/01/14 08:07:52;;;;;;;338.10;74.50;;;;;;;1.95;100.00;102975.72;6231321;22;20062;-84
2022/01/14 08:10:17;;;;;;;313.38;66.68;;;;;;;1.92;100.00;102983.78;6236286;22;20090;-85
2022/01/14 08:12:43;;;;;;;327.75;67.28;;;;;;;1.93;100.00;102987.31;6232348;23;20016;-84
2022/01/14 08:15:10;;;;;;;340.88;75.45;;;;;;;1.94;100.00;102994.34;6231824;22;20019;-84
2022/01/14 08:17:36;;;;;;;297.52;64.03;;;;;;;1.93;100.00;102993.47;6208872;23;20046;-84
2022/01/14 08:20:03;;;;;;;307.95;66.22;;;;;;;1.92;100.00;102996.16;6254897;22;20098;-84
2022/01/14 08:22:30;;;;;;;380.25;83.50;;;;;;;1.94;100.00;102999.63;6236206;23;20015;-85
2022/01/14 08:24:57;;;;;;;375.58;87.80;;;;;;;1.94;100.00;103000.47;6229894;22;20016;-85
2022/01/14 08:27:23;;;;;;;350.95;78.78;;;;;;;1.96;100.00;103014.53;6233814;23;20039;-85
2022/01/14 08:29:50;;;;;;;440.90;96.05;;;;;;;1.98;100.00;103012.69;6232606;22;20464;-85
2022/01/14 08:32:16;;;;;;;222.43;46.10;;;;;;;1.91;100.00;103016.47;6234033;23;20054;-85
2022/01/14 08:34:41;;;;;;;333.10;77.45;;;;;;;1.97;100.00;103010.09;6261647;22;20317;-85
2022/01/14 08:37:07;;;;;;;345.77;73.38;;;;;;;1.96;100.00;103009.25;6206737;22;20020;-85
2022/01/14 08:39:33;;;;;;;280.85;60.63;;;;;;;1.98;100.00;103010.03;6209861;23;20031;-85
2022/01/14 08:41:59;;;;;;;382.80;84.90;;;;;;;1.98;100.00;103007.38;6233751;22;20914;-85
2022/01/14 08:44:25;;;;;;;299.85;61.17;;;;;;;1.95;100.00;103012.78;6232626;23;20329;-84
2022/01/14 08:46:55;;;;;;;277.48;57.75;;;;;;;1.98;100.00;103007.38;6235326;22;20016;-85
2022/01/14 08:49:21;;;;;;;271.35;59.40;;;;;;;1.97;100.00;103016.25;6233538;23;20337;-86
2022/01/14 08:51:48;;;;;;;325.10;82.13;;;;;;;1.98;100.00;103007.38;6229127;22;20023;-86
2022/01/14 08:54:13;;;;;;;254.35;56.45;;;;;;;1.97;100.00;103010.97;6236295;22;20104;-86
2022/01/14 08:56:39;;;;;;;359.77;83.70;;;;;;;2.03;100.00;103009.88;6231321;23;20051;-86
2022/01/14 08:59:05;;;;;;;313.55;74.43;;;;;;;2.03;100.00;103016.03;6231229;22;20639;-86
2022/01/14 09:01:31;;;;;;;359.83;82.82;;;;;;;2.07;100.00;103015.94;6260592;22;20048;-86
2022/01/14 09:03:57;;;;;;;247.50;64.00;;;;;;;2.04;100.00;103016.91;6232390;22;20012;-86
2022/01/14 09:06:23;;;;;;;227.15;50.10;;;;;;;2.03;100.00;103013.38;6231243;23;20027;-86
2022/01/14 09:08:49;;;;;;;251.95;61.67;;;;;;;2.05;100.00;103012.50;6231039;22;20016;-86
2022/01/14 09:11:14;;;;;;;294.38;62.20;;;;;;;2.03;100.00;103008.09;6233137;23;20056;-85
2022/01/14 09:13:40;;;;;;;309.73;74.80;;;;;;;2.08;100.00;103009.72;6234240;23;20099;-86
2022/01/14 09:16:05;;;;;;;293.48;73.78;;;;;;;2.08;100.00;103004.44;6227822;22;20091;-86
2022/01/14 09:18:31;;;;;;;316.10;72.00;;;;;;;2.07;100.00;103010.63;6208008;23;20016;-86
2022/01/14 09:20:58;;;;;;;357.80;82.43;;;;;;;2.10;100.00;103014.06;6255867;22;20024;-86
2022/01/14 09:23:25;;;;;;;282.25;64.40;;;;;;;2.08;100.00;103001.78;6234753;23;20020;-86
2022/01/14 09:25:53;;;;;;;321.90;70.75;;;;;;;2.12;100.00;103014.84;6258846;22;20044;-86
2022/01/14 09:28:19;;;;;;;319.60;74.97;;;;;;;2.12;100.00;103019.28;6233014;23;20020;-86
2022/01/14 09:30:45;;;;;;;302.98;67.38;;;;;;;2.14;100.00;103020.09;6234585;22;20012;-86
2022/01/14 09:33:10;;;;;;;296.40;67.57;;;;;;;2.17;100.00;103020.00;6182154;22;20020;-86
2022/01/14 09:35:37;;;;;;;258.48;66.53;;;;;;;2.18;100.00;103024.34;6257789;22;20012;-86
2022/01/14 09:38:03;;;;;;;302.10;73.40;;;;;;;2.17;100.00;103028.78;6235021;22;20012;-86
2022/01/14 09:40:29;;;;;;;258.50;70.13;;;;;;;2.16;100.00;103031.53;6232541;23;20019;-86
2022/01/14 09:43:00;;;;;;;235.38;57.20;;;;;;;2.13;100.00;103036.91;6258118;22;20110;-86
2022/01/14 09:45:28;;;;;;;257.45;59.97;;;;;;;2.14;100.00;103031.56;6231767;23;20039;-86
2022/01/14 09:47:55;;;;;;;309.83;80.22;;;;;;;2.20;100.00;103033.13;6208238;22;20020;-86
2022/01/14 09:50:21;;;;;;;304.00;80.70;;;;;;;2.20;100.00;103035.78;6256172;22;20023;-86
2022/01/14 09:52:49;;;;;;;254.70;71.75;;;;;;;2.22;100.00;103047.19;6231853;23;20103;-86
2022/01/14 09:55:16;;;;;;;276.13;79.23;;;;;;;2.25;100.00;103047.06;6258050;22;20016;-86
2022/01/14 09:57:42;;;;;;;246.32;67.38;;;;;;;2.24;100.00;103038.28;6233317;23;20027;-86
2022/01/14 10:00:08;;;;;;;301.77;82.03;;;;;;;2.25;100.00;103025.88;6233367;22;20446;-86
2022/01/14 10:02:40;;;;;;;285.08;82.55;;;;;;;2.25;100.00;103028.53;6235165;22;20016;-86
2022/01/14 10:05:08;;;;;;;260.13;70.00;;;;;;;2.26;100.00;103038.19;6256174;22;20091;-86
2022/01/14 10:07:34;;;;;;;256.53;70.73;;;;;;;2.26;100.00;103031.09;6233872;23;20242;-86
2022/01/14 10:10:02;;;;;;;273.50;72.63;;;;;;;2.30;100.00;103026.56;6232560;22;20016;-86
2022/01/14 10:12:33;;;;;;;266.90;83.18;;;;;;;2.33;100.00;103029.13;6232001;23;20119;-86
2022/01/14 10:15:02;;;;;;;297.42;90.40;;;;;;;2.33;100.00;103039.72;6255800;22;20488;-86
2022/01/14 10:17:40;;;;;;;243.95;67.07;;;;;;;2.30;100.00;103029.19;6259804;22;20024;-86
2022/01/14 10:20:08;;;;;;;254.20;66.90;;;;;;;2.26;100.00;103030.25;6232484;22;20019;-86
2022/01/14 10:22:39;;;;;;;294.85;91.78;;;;;;;2.30;100.00;103025.69;6233157;23;20016;-86
2022/01/14 10:25:14;;;;;;;249.77;69.18;;;;;;;2.29;100.00;103035.44;6230702;22;20028;-86
2022/01/14 10:27:48;;;;;;;262.90;71.80;;;;;;;2.30;100.00;103029.19;6257475;22;20031;-86
2022/01/14 10:30:18;;;;;;;284.90;84.47;;;;;;;2.32;100.00;103021.22;6232151;22;20020;-86
2022/01/14 10:32:44;;;;;;;;;;;;;;;2.31;100.00;103024.78;6209175;23;20023;-86
2022/01/14 10:35:15;;;;;;;240.98;70.40;;;;;;;2.26;100.00;103030.25;6232106;22;19915;-86
2022/01/14 10:37:41;;;;;;;238.18;76.50;;;;;;;2.29;100.00;103032.78;6231870;23;20012;-86
2022/01/14 10:40:14;;;;;;;248.98;73.20;;;;;;;2.34;100.00;103030.84;6231499;22;20099;-86
2022/01/14 10:42:41;;;;;;;247.20;70.03;;;;;;;2.37;100.00;103027.22;6260326;22;20013;-86
2022/01/14 10:45:15;;;;;;;285.58;84.28;;;;;;;2.38;100.00;103019.19;6231248;22;20364;-86
2022/01/14 10:47:49;;;;;;;245.95;67.00;;;;;;;2.38;100.00;103016.53;6184884;23;20086;-85
2022/01/14 10:50:15;;;;;;;287.08;83.40;;;;;;;2.45;100.00;103025.16;6231159;23;20026;-85
2022/01/14 10:52:40;;;;;;;231.05;67.90;;;;;;;2.43;100.00;103029.63;6208023;23;20016;-86
2022/01/14 10:55:06;;;;;;;258.48;79.63;;;;;;;2.46;100.00;103033.03;6231783;22;20330;-86
2022/01/14 10:57:32;;;;;;;229.38;70.60;;;;;;;2.44;100.00;103032.22;6232993;23;20016;-86
2022/01/14 11:00:19;;;;;;;246.63;73.80;;;;;;;2.48;100.00;103028.53;6231008;22;20039;-87
2022/01/14 11:02:45;;;;;;;253.05;81.85;;;;;;;2.49;100.00;103024.97;6257588;22;20024;-86
2022/01/14 11:05:19;;;;;;;258.30;82.45;;;;;;;2.52;100.00;103029.28;6231787;22;20465;-86
2022/01/14 11:07:47;;;;;;;257.92;85.45;;;;;;;2.52;100.00;103031.94;6232914;23;20027;-86
2022/01/14 11:10:20;;;;;;;267.20;85.47;;;;;;;2.54;100.00;103013.34;6232887;22;20067;-85
2022/01/14 11:12:47;;;;;;;242.35;67.30;;;;;;;2.52;100.00;103012.53;6234207;23;20008;-86
2022/01/14 11:15:14;;;;;;;241.30;78.28;;;;;;;2.56;100.00;103006.16;6235036;22;20044;-85
2022/01/14 11:17:41;;;;;;;268.40;93.18;;;;;;;2.58;100.00;103005.19;6207607;23;20023;-86
2022/01/14 11:20:09;;;;;;;253.25;79.38;;;;;;;2.64;100.00;103004.94;6230276;22;20082;-86
2022/01/14 11:25:20;;;;;;;242.15;77.82;;;;;;;2.64;100.00;103004.09;6236334;23;20027;-86
2022/01/14 11:27:57;;;;;;;250.02;71.22;;;;;;;2.66;100.00;102999.59;6261030;22;20020;-86
2022/01/14 11:30:34;;;;;;;241.20;74.65;;;;;;;2.66;100.00;102992.50;6181400;23;20016;-86
2022/01/14 11:33:03;;;;;;;229.98;64.50;;;;;;;2.67;100.00;103006.63;6246269;22;20020;-86
2022/01/14 11:35:29;;;;;;;;;;;;;;;2.72;100.00;103002.00;6234182;23;20027;-86